sensor_id;sensor_type;location;lat;lon;timestamp;pressure;altitude;pressure_sealevel;temperature;humidity
20630;BME280;17386;43.846;25.950;2023-07-20T00:00:25;100679.72;;;27.77;nan
20630;BME280;17386;43.846;25.950;2023-07-20T00:03:09;100661.91;;;27.65;nan
20630;BME280;17386;43.846;25.950;2023-07-20T00:05:35;100673.72;;;27.66;nan
20630;BME280;17386;43.846;25.950;2023-07-20T00:08:00;100665.66;;;27.64;nan
20630;BME280;17386;43.846;25.950;2023-07-20T00:10:26;100657.88;;;27.69;nan
20630;BME280;17386;43.846;25.950;2023-07-20T00:12:51;100667.09;;;27.68;nan
20630;BME280;17386;43.846;25.950;2023-07-20T00:15:16;100686.56;;;27.73;nan
20630;BME280;17386;43.846;25.950;2023-07-20T00:17:42;100676.44;;;27.66;nan
20630;BME280;17386;43.846;25.950;2023-07-20T00:20:08;100685.84;;;27.71;nan
20630;BME280;17386;43.846;25.950;2023-07-20T00:22:33;100676.47;;;27.74;nan
20630;BME280;17386;43.846;25.950;2023-07-20T00:24:59;100691.16;;;27.81;nan
20630;BME280;17386;43.846;25.950;2023-07-20T00:27:24;100684.00;;;27.80;nan
20630;BME280;17386;43.846;25.950;2023-07-20T00:29:50;100668.78;;;27.77;nan
20630;BME280;17386;43.846;25.950;2023-07-20T00:32:15;100660.44;;;27.79;nan
20630;BME280;17386;43.846;25.950;2023-07-20T00:34:41;100654.78;;;27.72;nan
20630;BME280;17386;43.846;25.950;2023-07-20T00:37:06;100652.84;;;27.48;nan
20630;BME280;17386;43.846;25.950;2023-07-20T00:39:31;100635.78;;;27.38;nan
20630;BME280;17386;43.846;25.950;2023-07-20T00:41:57;100614.56;;;27.24;nan
20630;BME280;17386;43.846;25.950;2023-07-20T00:44:22;100619.03;;;27.25;nan
20630;BME280;17386;43.846;25.950;2023-07-20T00:46:48;100599.06;;;27.24;nan
20630;BME280;17386;43.846;25.950;2023-07-20T00:49:14;100596.53;;;27.31;nan
20630;BME280;17386;43.846;25.950;2023-07-20T00:51:40;100594.16;;;27.36;nan
20630;BME280;17386;43.846;25.950;2023-07-20T00:54:06;100588.03;;;27.42;nan
20630;BME280;17386;43.846;25.950;2023-07-20T00:56:32;100602.22;;;27.46;nan
20630;BME280;17386;43.846;25.950;2023-07-20T00:58:57;100590.44;;;27.45;nan
20630;BME280;17386;43.846;25.950;2023-07-20T01:01:22;100583.97;;;27.46;nan
20630;BME280;17386;43.846;25.950;2023-07-20T01:03:48;100577.78;;;27.28;nan
20630;BME280;17386;43.846;25.950;2023-07-20T01:09:25;100570.44;;;27.20;nan
20630;BME280;17386;43.846;25.950;2023-07-20T01:12:05;100564.31;;;27.26;nan
20630;BME280;17386;43.846;25.950;2023-07-20T01:14:34;100559.53;;;27.29;nan
20630;BME280;17386;43.846;25.950;2023-07-20T01:17:00;100536.19;;;27.34;nan
20630;BME280;17386;43.846;25.950;2023-07-20T01:19:25;100517.09;;;27.26;nan
20630;BME280;17386;43.846;25.950;2023-07-20T01:22:14;100523.03;;;27.13;nan
20630;BME280;17386;43.846;25.950;2023-07-20T01:33:09;100286.13;;;26.37;nan
20630;BME280;17386;43.846;25.950;2023-07-20T01:35:36;100293.72;;;26.17;nan
20630;BME280;17386;43.846;25.950;2023-07-20T01:38:03;100355.41;;;26.00;nan
20630;BME280;17386;43.846;25.950;2023-07-20T01:40:29;100356.22;;;25.92;nan
20630;BME280;17386;43.846;25.950;2023-07-20T01:42:54;100376.00;;;25.95;nan
20630;BME280;17386;43.846;25.950;2023-07-20T01:45:20;100352.00;;;25.98;nan
20630;BME280;17386;43.846;25.950;2023-07-20T01:47:45;100396.59;;;26.05;nan
20630;BME280;17386;43.846;25.950;2023-07-20T01:50:11;100474.94;;;25.94;nan
20630;BME280;17386;43.846;25.950;2023-07-20T01:52:36;100497.28;;;25.97;nan
20630;BME280;17386;43.846;25.950;2023-07-20T01:55:02;100478.59;;;26.02;nan
20630;BME280;17386;43.846;25.950;2023-07-20T01:57:27;100488.84;;;26.08;nan
20630;BME280;17386;43.846;25.950;2023-07-20T01:59:52;100506.97;;;26.00;nan
20630;BME280;17386;43.846;25.950;2023-07-20T02:02:18;100498.75;;;25.91;nan
20630;BME280;17386;43.846;25.950;2023-07-20T02:04:45;100508.81;;;25.73;nan
20630;BME280;17386;43.846;25.950;2023-07-20T02:07:11;100511.94;;;25.78;nan
20630;BME280;17386;43.846;25.950;2023-07-20T02:09:36;100515.84;;;25.76;nan
20630;BME280;17386;43.846;25.950;2023-07-20T02:12:02;100529.00;;;25.71;nan
20630;BME280;17386;43.846;25.950;2023-07-20T02:14:27;100530.19;;;25.68;nan
20630;BME280;17386;43.846;25.950;2023-07-20T02:16:54;100512.63;;;25.62;nan
20630;BME280;17386;43.846;25.950;2023-07-20T02:19:25;100510.38;;;25.58;nan
20630;BME280;17386;43.846;25.950;2023-07-20T02:21:51;100509.34;;;25.59;nan
20630;BME280;17386;43.846;25.950;2023-07-20T02:24:16;100515.59;;;25.51;nan
20630;BME280;17386;43.846;25.950;2023-07-20T02:26:42;100514.66;;;25.43;nan
20630;BME280;17386;43.846;25.950;2023-07-20T02:29:07;100514.81;;;25.41;nan
20630;BME280;17386;43.846;25.950;2023-07-20T02:31:33;100520.31;;;25.31;nan
20630;BME280;17386;43.846;25.950;2023-07-20T02:33:59;100517.84;;;25.38;nan
20630;BME280;17386;43.846;25.950;2023-07-20T02:36:24;100515.91;;;25.30;nan
20630;BME280;17386;43.846;25.950;2023-07-20T02:38:49;100525.06;;;25.29;nan
20630;BME280;17386;43.846;25.950;2023-07-20T02:41:15;100526.94;;;25.29;nan
20630;BME280;17386;43.846;25.950;2023-07-20T02:43:40;100525.22;;;25.28;nan
20630;BME280;17386;43.846;25.950;2023-07-20T02:46:05;100536.09;;;25.28;nan
20630;BME280;17386;43.846;25.950;2023-07-20T02:48:31;100529.50;;;25.30;nan
20630;BME280;17386;43.846;25.950;2023-07-20T02:50:56;100542.63;;;25.35;nan
20630;BME280;17386;43.846;25.950;2023-07-20T02:53:22;100540.28;;;25.22;nan
20630;BME280;17386;43.846;25.950;2023-07-20T02:55:47;100548.63;;;25.21;nan
20630;BME280;17386;43.846;25.950;2023-07-20T02:58:12;100537.50;;;25.14;nan
20630;BME280;17386;43.846;25.950;2023-07-20T03:00:38;100531.91;;;25.16;nan
20630;BME280;17386;43.846;25.950;2023-07-20T03:03:03;100533.53;;;25.08;nan
20630;BME280;17386;43.846;25.950;2023-07-20T03:05:29;100525.53;;;24.97;nan
20630;BME280;17386;43.846;25.950;2023-07-20T03:07:55;100534.19;;;24.93;nan
20630;BME280;17386;43.846;25.950;2023-07-20T03:10:21;100527.31;;;24.89;nan
20630;BME280;17386;43.846;25.950;2023-07-20T03:12:46;100540.91;;;24.89;nan
20630;BME280;17386;43.846;25.950;2023-07-20T03:15:12;100538.78;;;24.82;nan
20630;BME280;17386;43.846;25.950;2023-07-20T03:17:37;100533.09;;;24.76;nan
20630;BME280;17386;43.846;25.950;2023-07-20T03:20:03;100540.13;;;24.78;nan
20630;BME280;17386;43.846;25.950;2023-07-20T03:22:28;100536.75;;;24.67;nan
20630;BME280;17386;43.846;25.950;2023-07-20T03:24:54;100550.81;;;24.52;nan
20630;BME280;17386;43.846;25.950;2023-07-20T03:27:19;100546.94;;;24.55;nan
20630;BME280;17386;43.846;25.950;2023-07-20T03:29:44;100544.78;;;24.59;nan
20630;BME280;17386;43.846;25.950;2023-07-20T03:32:10;100545.53;;;24.51;nan
20630;BME280;17386;43.846;25.950;2023-07-20T03:34:36;100540.66;;;24.54;nan
20630;BME280;17386;43.846;25.950;2023-07-20T03:37:02;100540.38;;;24.48;nan
20630;BME280;17386;43.846;25.950;2023-07-20T03:39:30;100549.38;;;24.48;nan
20630;BME280;17386;43.846;25.950;2023-07-20T03:41:55;100541.56;;;24.45;nan
20630;BME280;17386;43.846;25.950;2023-07-20T03:44:20;100538.16;;;24.43;nan
20630;BME280;17386;43.846;25.950;2023-07-20T03:46:46;100531.56;;;24.46;nan
20630;BME280;17386;43.846;25.950;2023-07-20T03:49:11;100525.53;;;24.52;nan
20630;BME280;17386;43.846;25.950;2023-07-20T03:51:37;100521.97;;;24.51;nan
20630;BME280;17386;43.846;25.950;2023-07-20T03:54:02;100527.78;;;24.56;nan
20630;BME280;17386;43.846;25.950;2023-07-20T03:56:28;100538.63;;;24.56;nan
20630;BME280;17386;43.846;25.950;2023-07-20T03:58:53;100529.78;;;24.54;nan
20630;BME280;17386;43.846;25.950;2023-07-20T04:01:19;100527.50;;;24.60;nan
20630;BME280;17386;43.846;25.950;2023-07-20T04:03:44;100522.66;;;24.53;nan
20630;BME280;17386;43.846;25.950;2023-07-20T04:06:10;100522.41;;;24.47;nan
20630;BME280;17386;43.846;25.950;2023-07-20T04:08:36;100517.53;;;24.50;nan
20630;BME280;17386;43.846;25.950;2023-07-20T04:11:02;100526.91;;;24.56;nan
20630;BME280;17386;43.846;25.950;2023-07-20T04:13:28;100531.06;;;24.60;nan
20630;BME280;17386;43.846;25.950;2023-07-20T04:15:53;100520.50;;;24.57;nan
20630;BME280;17386;43.846;25.950;2023-07-20T04:18:20;100516.47;;;24.61;nan
20630;BME280;17386;43.846;25.950;2023-07-20T04:20:45;100503.19;;;24.58;nan
20630;BME280;17386;43.846;25.950;2023-07-20T04:23:12;100512.91;;;24.61;nan
20630;BME280;17386;43.846;25.950;2023-07-20T04:25:39;100510.75;;;24.64;nan
20630;BME280;17386;43.846;25.950;2023-07-20T04:28:07;100519.34;;;24.60;nan
20630;BME280;17386;43.846;25.950;2023-07-20T04:30:36;100511.19;;;24.60;nan
20630;BME280;17386;43.846;25.950;2023-07-20T04:33:04;100510.75;;;24.64;nan
20630;BME280;17386;43.846;25.950;2023-07-20T04:35:50;100524.00;;;24.67;nan
20630;BME280;17386;43.846;25.950;2023-07-20T04:38:15;100534.81;;;24.49;nan
20630;BME280;17386;43.846;25.950;2023-07-20T04:40:46;100538.09;;;24.53;nan
20630;BME280;17386;43.846;25.950;2023-07-20T04:43:16;100530.09;;;24.51;nan
20630;BME280;17386;43.846;25.950;2023-07-20T04:45:42;100529.53;;;24.48;nan
20630;BME280;17386;43.846;25.950;2023-07-20T04:48:16;100533.78;;;24.60;nan
20630;BME280;17386;43.846;25.950;2023-07-20T04:50:45;100546.19;;;24.63;nan
20630;BME280;17386;43.846;25.950;2023-07-20T04:53:12;100551.34;;;24.56;nan
20630;BME280;17386;43.846;25.950;2023-07-20T04:55:38;100572.66;;;24.61;nan
20630;BME280;17386;43.846;25.950;2023-07-20T04:58:05;100575.19;;;24.62;nan
20630;BME280;17386;43.846;25.950;2023-07-20T05:00:35;100566.84;;;24.46;nan
20630;BME280;17386;43.846;25.950;2023-07-20T05:03:02;100580.13;;;24.49;nan
20630;BME280;17386;43.846;25.950;2023-07-20T05:05:30;100590.38;;;24.55;nan
20630;BME280;17386;43.846;25.950;2023-07-20T05:07:56;100586.78;;;24.64;nan
20630;BME280;17386;43.846;25.950;2023-07-20T05:10:21;100579.44;;;24.74;nan
20630;BME280;17386;43.846;25.950;2023-07-20T05:12:48;100580.81;;;24.88;nan
20630;BME280;17386;43.846;25.950;2023-07-20T05:15:13;100583.09;;;24.93;nan
20630;BME280;17386;43.846;25.950;2023-07-20T05:17:39;100577.34;;;24.96;nan
20630;BME280;17386;43.846;25.950;2023-07-20T05:20:05;100579.69;;;24.81;nan
20630;BME280;17386;43.846;25.950;2023-07-20T05:22:31;100581.38;;;24.92;nan
20630;BME280;17386;43.846;25.950;2023-07-20T05:24:56;100566.94;;;24.91;nan
20630;BME280;17386;43.846;25.950;2023-07-20T05:27:22;100590.91;;;24.96;nan
20630;BME280;17386;43.846;25.950;2023-07-20T05:29:47;100590.59;;;25.08;nan
20630;BME280;17386;43.846;25.950;2023-07-20T05:32:13;100591.25;;;25.20;nan
20630;BME280;17386;43.846;25.950;2023-07-20T05:34:39;100598.47;;;25.29;nan
20630;BME280;17386;43.846;25.950;2023-07-20T05:37:05;100585.38;;;25.43;nan
20630;BME280;17386;43.846;25.950;2023-07-20T05:39:32;100584.75;;;25.49;nan
20630;BME280;17386;43.846;25.950;2023-07-20T05:41:58;100580.63;;;25.62;nan
20630;BME280;17386;43.846;25.950;2023-07-20T05:44:23;100568.97;;;25.70;nan
20630;BME280;17386;43.846;25.950;2023-07-20T05:46:49;100581.09;;;25.94;nan
20630;BME280;17386;43.846;25.950;2023-07-20T05:49:14;100576.44;;;26.04;nan
20630;BME280;17386;43.846;25.950;2023-07-20T05:51:40;100564.47;;;25.97;nan
20630;BME280;17386;43.846;25.950;2023-07-20T05:54:05;100543.75;;;26.04;nan
20630;BME280;17386;43.846;25.950;2023-07-20T05:56:31;100527.81;;;26.09;nan
20630;BME280;17386;43.846;25.950;2023-07-20T05:58:56;100529.56;;;26.18;nan
20630;BME280;17386;43.846;25.950;2023-07-20T06:01:22;100523.31;;;26.26;nan
20630;BME280;17386;43.846;25.950;2023-07-20T06:03:47;100525.38;;;26.32;nan
20630;BME280;17386;43.846;25.950;2023-07-20T06:06:13;100536.47;;;26.38;nan
20630;BME280;17386;43.846;25.950;2023-07-20T06:08:38;100556.66;;;26.45;nan
20630;BME280;17386;43.846;25.950;2023-07-20T06:11:04;100545.28;;;26.50;nan
20630;BME280;17386;43.846;25.950;2023-07-20T06:13:29;100546.28;;;26.49;nan
20630;BME280;17386;43.846;25.950;2023-07-20T06:15:55;100546.47;;;26.56;nan
20630;BME280;17386;43.846;25.950;2023-07-20T06:18:22;100558.38;;;26.55;nan
20630;BME280;17386;43.846;25.950;2023-07-20T06:20:51;100556.97;;;26.42;nan
20630;BME280;17386;43.846;25.950;2023-07-20T06:23:20;100553.06;;;26.45;nan
20630;BME280;17386;43.846;25.950;2023-07-20T06:25:46;100560.38;;;26.44;nan
20630;BME280;17386;43.846;25.950;2023-07-20T06:28:11;100564.81;;;26.45;nan
20630;BME280;17386;43.846;25.950;2023-07-20T06:30:37;100570.25;;;26.45;nan
20630;BME280;17386;43.846;25.950;2023-07-20T06:33:02;100571.50;;;26.51;nan
20630;BME280;17386;43.846;25.950;2023-07-20T06:35:28;100582.25;;;26.35;nan
20630;BME280;17386;43.846;25.950;2023-07-20T06:37:53;100575.38;;;26.23;nan
20630;BME280;17386;43.846;25.950;2023-07-20T06:40:19;100587.84;;;26.33;nan
20630;BME280;17386;43.846;25.950;2023-07-20T06:42:45;100586.63;;;26.28;nan
20630;BME280;17386;43.846;25.950;2023-07-20T06:45:11;100586.31;;;26.31;nan
20630;BME280;17386;43.846;25.950;2023-07-20T06:47:40;100593.84;;;26.37;nan
20630;BME280;17386;43.846;25.950;2023-07-20T06:50:09;100594.94;;;26.44;nan
20630;BME280;17386;43.846;25.950;2023-07-20T06:52:34;100605.34;;;26.49;nan
20630;BME280;17386;43.846;25.950;2023-07-20T06:55:00;100607.75;;;26.52;nan
20630;BME280;17386;43.846;25.950;2023-07-20T06:57:26;100604.75;;;26.63;nan
20630;BME280;17386;43.846;25.950;2023-07-20T06:59:51;100606.94;;;26.59;nan
20630;BME280;17386;43.846;25.950;2023-07-20T07:02:17;100611.63;;;26.75;nan
20630;BME280;17386;43.846;25.950;2023-07-20T07:04:42;100601.97;;;26.89;nan
20630;BME280;17386;43.846;25.950;2023-07-20T07:07:09;100594.50;;;26.91;nan
20630;BME280;17386;43.846;25.950;2023-07-20T07:09:35;100609.53;;;27.03;nan
20630;BME280;17386;43.846;25.950;2023-07-20T07:12:00;100599.03;;;27.16;nan
20630;BME280;17386;43.846;25.950;2023-07-20T07:14:26;100600.81;;;27.34;nan
20630;BME280;17386;43.846;25.950;2023-07-20T07:16:51;100613.63;;;27.49;nan
20630;BME280;17386;43.846;25.950;2023-07-20T07:19:16;100621.31;;;27.54;nan
20630;BME280;17386;43.846;25.950;2023-07-20T07:21:42;100622.56;;;27.68;nan
20630;BME280;17386;43.846;25.950;2023-07-20T07:24:07;100631.41;;;27.62;nan
20630;BME280;17386;43.846;25.950;2023-07-20T07:26:35;100632.47;;;27.77;nan
20630;BME280;17386;43.846;25.950;2023-07-20T07:29:01;100625.97;;;27.86;nan
20630;BME280;17386;43.846;25.950;2023-07-20T07:31:26;100614.06;;;27.95;nan
20630;BME280;17386;43.846;25.950;2023-07-20T07:33:51;100620.34;;;28.12;nan
20630;BME280;17386;43.846;25.950;2023-07-20T07:36:17;100619.00;;;28.32;nan
20630;BME280;17386;43.846;25.950;2023-07-20T07:38:42;100606.53;;;28.38;nan
20630;BME280;17386;43.846;25.950;2023-07-20T07:41:08;100605.31;;;28.57;nan
20630;BME280;17386;43.846;25.950;2023-07-20T07:43:33;100611.97;;;28.54;nan
20630;BME280;17386;43.846;25.950;2023-07-20T07:46:00;100612.78;;;28.71;nan
20630;BME280;17386;43.846;25.950;2023-07-20T07:48:25;100623.72;;;28.71;nan
20630;BME280;17386;43.846;25.950;2023-07-20T07:50:53;100621.31;;;28.76;nan
20630;BME280;17386;43.846;25.950;2023-07-20T07:53:19;100613.94;;;28.93;nan
20630;BME280;17386;43.846;25.950;2023-07-20T07:55:47;100621.72;;;29.12;nan
20630;BME280;17386;43.846;25.950;2023-07-20T07:58:13;100623.19;;;29.23;nan
20630;BME280;17386;43.846;25.950;2023-07-20T08:00:39;100619.47;;;29.16;nan
20630;BME280;17386;43.846;25.950;2023-07-20T08:03:06;100621.09;;;29.33;nan
20630;BME280;17386;43.846;25.950;2023-07-20T08:05:31;100627.69;;;29.47;nan
20630;BME280;17386;43.846;25.950;2023-07-20T08:07:57;100622.84;;;29.57;nan
20630;BME280;17386;43.846;25.950;2023-07-20T08:10:22;100621.91;;;29.73;nan
20630;BME280;17386;43.846;25.950;2023-07-20T08:12:48;100615.50;;;29.81;nan
20630;BME280;17386;43.846;25.950;2023-07-20T08:15:13;100602.06;;;29.94;nan
20630;BME280;17386;43.846;25.950;2023-07-20T08:17:41;100604.41;;;29.97;nan
20630;BME280;17386;43.846;25.950;2023-07-20T08:20:06;100613.94;;;30.09;nan
20630;BME280;17386;43.846;25.950;2023-07-20T08:22:35;100604.91;;;30.01;nan
20630;BME280;17386;43.846;25.950;2023-07-20T08:25:00;100604.31;;;30.13;nan
20630;BME280;17386;43.846;25.950;2023-07-20T08:27:25;100594.91;;;30.08;nan
20630;BME280;17386;43.846;25.950;2023-07-20T08:29:51;100603.00;;;30.24;nan
20630;BME280;17386;43.846;25.950;2023-07-20T08:32:16;100599.13;;;30.18;nan
20630;BME280;17386;43.846;25.950;2023-07-20T08:34:42;100602.91;;;30.32;nan
20630;BME280;17386;43.846;25.950;2023-07-20T08:37:07;100603.88;;;30.39;nan
20630;BME280;17386;43.846;25.950;2023-07-20T08:39:35;100597.38;;;30.55;nan
20630;BME280;17386;43.846;25.950;2023-07-20T08:42:01;100594.88;;;30.68;nan
20630;BME280;17386;43.846;25.950;2023-07-20T08:44:32;100588.81;;;30.73;nan
20630;BME280;17386;43.846;25.950;2023-07-20T08:47:00;100591.53;;;30.88;nan
20630;BME280;17386;43.846;25.950;2023-07-20T08:49:27;100597.03;;;31.02;nan
20630;BME280;17386;43.846;25.950;2023-07-20T08:51:53;100591.22;;;31.12;nan
20630;BME280;17386;43.846;25.950;2023-07-20T08:54:19;100603.44;;;31.24;nan
20630;BME280;17386;43.846;25.950;2023-07-20T08:56:45;100594.97;;;31.41;nan
20630;BME280;17386;43.846;25.950;2023-07-20T08:59:13;100591.56;;;31.39;nan
20630;BME280;17386;43.846;25.950;2023-07-20T09:01:40;100585.97;;;31.47;nan
20630;BME280;17386;43.846;25.950;2023-07-20T09:04:06;100589.28;;;31.64;nan
20630;BME280;17386;43.846;25.950;2023-07-20T09:06:32;100580.09;;;31.71;nan
20630;BME280;17386;43.846;25.950;2023-07-20T09:08:59;100596.53;;;31.86;nan
20630;BME280;17386;43.846;25.950;2023-07-20T09:11:24;100581.09;;;31.85;nan
20630;BME280;17386;43.846;25.950;2023-07-20T09:14:08;100585.97;;;31.90;nan
20630;BME280;17386;43.846;25.950;2023-07-20T09:16:53;100581.66;;;32.02;nan
20630;BME280;17386;43.846;25.950;2023-07-20T09:19:20;100576.47;;;32.13;nan
20630;BME280;17386;43.846;25.950;2023-07-20T09:21:49;100574.94;;;32.32;nan
20630;BME280;17386;43.846;25.950;2023-07-20T09:24:17;100586.31;;;32.29;nan
20630;BME280;17386;43.846;25.950;2023-07-20T09:26:44;100591.47;;;32.39;nan
20630;BME280;17386;43.846;25.950;2023-07-20T09:29:10;100585.22;;;32.52;nan
20630;BME280;17386;43.846;25.950;2023-07-20T09:31:36;100588.56;;;32.41;nan
20630;BME280;17386;43.846;25.950;2023-07-20T09:34:02;100585.22;;;32.52;nan
20630;BME280;17386;43.846;25.950;2023-07-20T09:36:33;100589.31;;;32.62;nan
20630;BME280;17386;43.846;25.950;2023-07-20T09:38:59;100578.03;;;32.51;nan
20630;BME280;17386;43.846;25.950;2023-07-20T09:41:25;100572.38;;;32.59;nan
20630;BME280;17386;43.846;25.950;2023-07-20T09:43:51;100568.72;;;32.52;nan
20630;BME280;17386;43.846;25.950;2023-07-20T09:46:17;100557.44;;;32.75;nan
20630;BME280;17386;43.846;25.950;2023-07-20T09:48:52;100552.63;;;32.83;nan
20630;BME280;17386;43.846;25.950;2023-07-20T09:51:22;100533.69;;;33.02;nan
20630;BME280;17386;43.846;25.950;2023-07-20T09:53:49;100528.00;;;33.16;nan
20630;BME280;17386;43.846;25.950;2023-07-20T09:56:16;100543.91;;;33.34;nan
20630;BME280;17386;43.846;25.950;2023-07-20T09:58:44;100537.78;;;33.32;nan
20630;BME280;17386;43.846;25.950;2023-07-20T10:01:11;100536.16;;;33.44;nan
20630;BME280;17386;43.846;25.950;2023-07-20T10:03:41;100528.75;;;33.71;nan
20630;BME280;17386;43.846;25.950;2023-07-20T10:06:13;100518.81;;;34.04;nan
20630;BME280;17386;43.846;25.950;2023-07-20T10:08:41;100512.84;;;34.26;nan
20630;BME280;17386;43.846;25.950;2023-07-20T10:11:08;100492.22;;;34.55;nan
20630;BME280;17386;43.846;25.950;2023-07-20T10:13:38;100493.19;;;34.81;nan
20630;BME280;17386;43.846;25.950;2023-07-20T10:16:09;100486.59;;;35.20;nan
20630;BME280;17386;43.846;25.950;2023-07-20T10:18:41;100487.78;;;35.38;nan
20630;BME280;17386;43.846;25.950;2023-07-20T10:21:10;100473.16;;;36.12;nan
20630;BME280;17386;43.846;25.950;2023-07-20T10:23:36;100464.78;;;36.74;nan
20630;BME280;17386;43.846;25.950;2023-07-20T10:26:03;100459.28;;;37.34;nan
20630;BME280;17386;43.846;25.950;2023-07-20T10:28:28;100452.84;;;37.75;nan
20630;BME280;17386;43.846;25.950;2023-07-20T10:30:54;100438.72;;;38.23;nan
20630;BME280;17386;43.846;25.950;2023-07-20T10:33:20;100436.31;;;38.67;nan
20630;BME280;17386;43.846;25.950;2023-07-20T10:38:18;100428.97;;;39.01;nan
20630;BME280;17386;43.846;25.950;2023-07-20T10:40:54;100438.88;;;39.26;nan
20630;BME280;17386;43.846;25.950;2023-07-20T10:43:20;100429.63;;;39.20;nan
20630;BME280;17386;43.846;25.950;2023-07-20T10:45:49;100434.28;;;39.65;nan
20630;BME280;17386;43.846;25.950;2023-07-20T10:48:24;100440.22;;;39.57;nan
20630;BME280;17386;43.846;25.950;2023-07-20T10:51:14;100430.59;;;39.98;nan
20630;BME280;17386;43.846;25.950;2023-07-20T10:53:45;100435.66;;;40.62;nan
20630;BME280;17386;43.846;25.950;2023-07-20T10:56:20;100432.22;;;41.04;nan
20630;BME280;17386;43.846;25.950;2023-07-20T10:58:45;100433.03;;;41.26;nan
20630;BME280;17386;43.846;25.950;2023-07-20T11:01:16;100430.69;;;41.77;nan
20630;BME280;17386;43.846;25.950;2023-07-20T11:03:42;100422.28;;;42.19;nan
20630;BME280;17386;43.846;25.950;2023-07-20T11:09:05;100417.06;;;42.33;nan
20630;BME280;17386;43.846;25.950;2023-07-20T11:11:37;100423.25;;;41.56;nan
20630;BME280;17386;43.846;25.950;2023-07-20T11:14:07;100419.41;;;41.03;nan
20630;BME280;17386;43.846;25.950;2023-07-20T11:16:43;100420.22;;;41.30;nan
20630;BME280;17386;43.846;25.950;2023-07-20T11:19:19;100426.75;;;41.41;nan
20630;BME280;17386;43.846;25.950;2023-07-20T11:21:50;100421.63;;;41.00;nan
20630;BME280;17386;43.846;25.950;2023-07-20T11:24:16;100427.59;;;41.14;nan
20630;BME280;17386;43.846;25.950;2023-07-20T11:29:12;100424.69;;;40.50;nan
20630;BME280;17386;43.846;25.950;2023-07-20T11:31:41;100421.72;;;40.40;nan
20630;BME280;17386;43.846;25.950;2023-07-20T11:34:14;100412.84;;;39.32;nan
20630;BME280;17386;43.846;25.950;2023-07-20T11:36:40;100418.84;;;38.95;nan
20630;BME280;17386;43.846;25.950;2023-07-20T11:39:08;100420.56;;;38.56;nan
20630;BME280;17386;43.846;25.950;2023-07-20T11:41:34;100413.53;;;38.01;nan
20630;BME280;17386;43.846;25.950;2023-07-20T11:44:00;100407.31;;;37.17;nan
20630;BME280;17386;43.846;25.950;2023-07-20T11:46:30;100401.81;;;36.69;nan
20630;BME280;17386;43.846;25.950;2023-07-20T11:48:59;100389.66;;;36.58;nan
20630;BME280;17386;43.846;25.950;2023-07-20T11:51:26;100371.91;;;36.48;nan
20630;BME280;17386;43.846;25.950;2023-07-20T11:53:52;100368.00;;;36.19;nan
20630;BME280;17386;43.846;25.950;2023-07-20T11:56:17;100351.91;;;35.72;nan
20630;BME280;17386;43.846;25.950;2023-07-20T11:58:44;100360.69;;;35.44;nan
20630;BME280;17386;43.846;25.950;2023-07-20T12:01:12;100375.16;;;35.15;nan
20630;BME280;17386;43.846;25.950;2023-07-20T12:03:38;100371.25;;;34.91;nan
20630;BME280;17386;43.846;25.950;2023-07-20T12:06:07;100370.31;;;34.72;nan
20630;BME280;17386;43.846;25.950;2023-07-20T12:08:33;100370.38;;;34.14;nan
20630;BME280;17386;43.846;25.950;2023-07-20T12:10:59;100356.97;;;34.24;nan
20630;BME280;17386;43.846;25.950;2023-07-20T12:13:38;100348.34;;;34.14;nan
20630;BME280;17386;43.846;25.950;2023-07-20T12:16:09;100343.38;;;34.29;nan
20630;BME280;17386;43.846;25.950;2023-07-20T12:18:36;100346.59;;;34.26;nan
20630;BME280;17386;43.846;25.950;2023-07-20T12:21:01;100350.31;;;34.45;nan
20630;BME280;17386;43.846;25.950;2023-07-20T12:23:35;100351.47;;;34.17;nan
20630;BME280;17386;43.846;25.950;2023-07-20T12:26:02;100358.06;;;34.16;nan
20630;BME280;17386;43.846;25.950;2023-07-20T12:28:29;100352.34;;;34.18;nan
20630;BME280;17386;43.846;25.950;2023-07-20T12:30:56;100359.25;;;34.40;nan
20630;BME280;17386;43.846;25.950;2023-07-20T12:33:22;100357.72;;;34.51;nan
20630;BME280;17386;43.846;25.950;2023-07-20T12:35:48;100360.31;;;34.46;nan
20630;BME280;17386;43.846;25.950;2023-07-20T12:38:14;100361.81;;;34.35;nan
20630;BME280;17386;43.846;25.950;2023-07-20T12:40:41;100352.53;;;34.23;nan
20630;BME280;17386;43.846;25.950;2023-07-20T12:43:06;100355.13;;;34.18;nan
20630;BME280;17386;43.846;25.950;2023-07-20T12:45:32;100352.53;;;34.16;nan
20630;BME280;17386;43.846;25.950;2023-07-20T12:47:58;100355.56;;;34.08;nan
20630;BME280;17386;43.846;25.950;2023-07-20T12:50:23;100356.22;;;33.97;nan
20630;BME280;17386;43.846;25.950;2023-07-20T12:52:49;100350.09;;;33.82;nan
20630;BME280;17386;43.846;25.950;2023-07-20T12:55:14;100354.34;;;33.84;nan
20630;BME280;17386;43.846;25.950;2023-07-20T12:57:40;100354.53;;;33.89;nan
20630;BME280;17386;43.846;25.950;2023-07-20T13:00:09;100354.13;;;33.86;nan
20630;BME280;17386;43.846;25.950;2023-07-20T13:02:35;100348.63;;;33.79;nan
20630;BME280;17386;43.846;25.950;2023-07-20T13:05:02;100349.25;;;33.81;nan
20630;BME280;17386;43.846;25.950;2023-07-20T13:07:33;100348.00;;;33.90;nan
20630;BME280;17386;43.846;25.950;2023-07-20T13:09:59;100350.72;;;33.97;nan
20630;BME280;17386;43.846;25.950;2023-07-20T13:12:26;100346.69;;;33.99;nan
20630;BME280;17386;43.846;25.950;2023-07-20T13:14:54;100349.22;;;34.01;nan
20630;BME280;17386;43.846;25.950;2023-07-20T13:17:20;100342.03;;;34.00;nan